createdAt,value
2017-12-30T00:01:42.305Z,5.94
2017-12-30T00:04:09.903Z,5.96
2017-12-30T00:06:37.567Z,5.93
2017-12-30T00:09:05.302Z,5.92
2017-12-30T00:11:32.911Z,5.90
2017-12-30T00:14:00.632Z,5.92
2017-12-30T00:16:28.243Z,5.91
2017-12-30T00:18:55.866Z,5.76
2017-12-30T00:21:23.535Z,5.76
2017-12-30T00:23:51.138Z,5.61
2017-12-30T00:26:18.802Z,5.56
2017-12-30T00:28:46.410Z,5.52
2017-12-30T00:31:14.014Z,5.51
2017-12-30T00:33:41.621Z,5.52
2017-12-30T00:36:09.226Z,5.50
2017-12-30T00:38:36.943Z,5.56
2017-12-30T00:41:04.549Z,5.47
2017-12-30T00:43:32.215Z,5.46
2017-12-30T00:45:59.887Z,5.42
2017-12-30T00:48:27.547Z,5.40
2017-12-30T00:50:55.207Z,5.37
2017-12-30T00:53:22.809Z,5.40
2017-12-30T00:55:50.410Z,5.38
2017-12-30T00:58:18.081Z,5.41
2017-12-30T01:00:45.691Z,5.41
2017-12-30T01:03:13.419Z,5.39
2017-12-30T01:05:41.029Z,5.42
2017-12-30T01:08:08.697Z,5.41
2017-12-30T01:10:36.358Z,5.30
2017-12-30T01:13:03.969Z,5.30
2017-12-30T01:15:31.640Z,5.29
2017-12-30T01:17:59.242Z,5.33
2017-12-30T01:20:26.842Z,5.37
2017-12-30T01:22:54.459Z,5.39
2017-12-30T01:25:22.058Z,5.43
2017-12-30T01:27:49.726Z,5.46
2017-12-30T01:30:17.327Z,5.39
2017-12-30T01:32:44.926Z,5.38
2017-12-30T01:35:12.539Z,5.39
2017-12-30T01:37:40.139Z,5.44
2017-12-30T01:40:07.797Z,5.47
2017-12-30T01:42:35.402Z,5.46
2017-12-30T01:45:03.010Z,5.49
2017-12-30T01:47:30.621Z,5.56
2017-12-30T01:49:58.223Z,5.63
2017-12-30T01:52:25.891Z,5.63
2017-12-30T01:54:53.506Z,5.62
2017-12-30T01:57:21.114Z,5.59
2017-12-30T01:59:48.787Z,5.52
2017-12-30T02:02:16.389Z,5.56
2017-12-30T02:04:44.111Z,5.57
2017-12-30T02:07:11.718Z,5.52
2017-12-30T02:09:39.379Z,5.54
2017-12-30T02:12:06.994Z,5.48
2017-12-30T02:14:34.599Z,5.41
2017-12-30T02:17:02.316Z,5.42
2017-12-30T02:19:29.922Z,5.48
2017-12-30T02:21:57.534Z,5.42
2017-12-30T02:24:25.143Z,5.39
2017-12-30T02:26:52.808Z,5.37
2017-12-30T02:29:20.463Z,5.34
2017-12-30T02:31:48.127Z,5.32
2017-12-30T02:34:15.737Z,5.27
2017-12-30T02:36:43.399Z,5.22
2017-12-30T02:39:11.046Z,5.19
2017-12-30T02:41:38.763Z,5.24
2017-12-30T02:44:06.359Z,5.30
2017-12-30T02:46:33.958Z,5.35
2017-12-30T02:49:01.574Z,5.41
2017-12-30T02:51:29.176Z,5.37
2017-12-30T02:53:56.886Z,5.43
2017-12-30T02:56:24.543Z,5.44
2017-12-30T02:58:52.203Z,5.43
2017-12-30T03:01:19.813Z,5.49
2017-12-30T03:03:47.415Z,5.46
2017-12-30T03:06:15.130Z,5.38
2017-12-30T03:08:42.740Z,5.43
2017-12-30T03:11:10.342Z,5.34
2017-12-30T03:13:38.003Z,5.26
2017-12-30T03:16:05.662Z,5.29
2017-12-30T03:18:33.326Z,5.15
2017-12-30T03:21:00.991Z,5.07
2017-12-30T03:23:28.659Z,5.15
2017-12-30T03:25:56.332Z,5.19
2017-12-30T03:28:23.927Z,5.20
2017-12-30T03:30:51.588Z,5.19
2017-12-30T03:33:19.258Z,5.20
2017-12-30T03:35:46.854Z,5.21
2017-12-30T03:38:14.526Z,5.27
2017-12-30T03:40:42.126Z,5.12
2017-12-30T03:43:09.859Z,5.18
2017-12-30T03:45:37.518Z,5.19
2017-12-30T03:48:05.122Z,5.15
2017-12-30T03:50:32.739Z,5.20
2017-12-30T03:53:00.412Z,5.24
2017-12-30T03:55:28.070Z,5.31
2017-12-30T03:57:55.773Z,5.35
2017-12-30T04:00:23.375Z,5.37
2017-12-30T04:02:51.050Z,5.36
2017-12-30T04:05:18.657Z,5.38
2017-12-30T04:07:46.362Z,5.31
2017-12-30T04:10:13.973Z,5.31
2017-12-30T04:12:41.606Z,5.24
2017-12-30T04:15:09.279Z,5.26
2017-12-30T04:17:36.879Z,5.22
2017-12-30T04:20:04.531Z,5.31
2017-12-30T04:22:32.191Z,5.28
2017-12-30T04:24:59.786Z,5.30
2017-12-30T04:27:27.397Z,5.32
2017-12-30T04:29:55.010Z,5.34
2017-12-30T04:32:22.662Z,5.41
2017-12-30T04:34:50.326Z,5.42
2017-12-30T04:37:17.994Z,5.46
2017-12-30T04:39:45.658Z,5.45
2017-12-30T04:42:13.322Z,5.40
2017-12-30T04:44:40.984Z,5.42
2017-12-30T04:47:08.587Z,5.30
2017-12-30T04:49:36.186Z,5.34
2017-12-30T04:52:03.799Z,5.37
2017-12-30T04:54:31.398Z,5.42
2017-12-30T04:56:59.067Z,5.36
2017-12-30T04:59:26.674Z,5.38
2017-12-30T05:01:54.285Z,5.42
2017-12-30T05:04:21.895Z,5.44
2017-12-30T05:06:49.506Z,5.39
2017-12-30T05:09:17.230Z,5.36
2017-12-30T05:11:44.890Z,5.37
2017-12-30T05:14:12.499Z,5.42
2017-12-30T05:16:40.107Z,5.39
2017-12-30T05:19:07.710Z,5.36
2017-12-30T05:21:35.546Z,5.29
2017-12-30T05:24:03.145Z,5.29
2017-12-30T05:26:30.862Z,5.23
2017-12-30T05:28:58.538Z,5.21
2017-12-30T05:31:26.151Z,5.17
2017-12-30T05:33:53.815Z,5.11
2017-12-30T05:36:21.483Z,5.04
2017-12-30T05:38:49.082Z,4.97
2017-12-30T05:41:16.689Z,4.94
2017-12-30T05:43:44.291Z,4.92
2017-12-30T05:46:11.942Z,4.88
2017-12-30T05:48:39.604Z,4.80
2017-12-30T05:51:07.219Z,4.71
2017-12-30T05:53:34.842Z,4.75
2017-12-30T05:56:02.502Z,4.69
2017-12-30T05:58:30.222Z,4.58
2017-12-30T06:00:57.839Z,4.58
2017-12-30T06:03:25.448Z,4.63
2017-12-30T06:05:53.124Z,4.61
2017-12-30T06:08:20.722Z,4.62
2017-12-30T06:10:48.383Z,4.68
2017-12-30T06:13:16.047Z,4.70
2017-12-30T06:15:43.658Z,4.76
2017-12-30T06:18:11.274Z,4.76
2017-12-30T06:20:38.873Z,4.92
2017-12-30T06:23:06.534Z,5.00
2017-12-30T06:25:34.145Z,5.10
2017-12-30T06:28:01.743Z,5.15
2017-12-30T06:30:29.346Z,5.12
2017-12-30T06:32:57.003Z,5.17
2017-12-30T06:35:24.659Z,5.22
2017-12-30T06:37:52.314Z,5.28
2017-12-30T06:40:19.914Z,5.31
2017-12-30T06:42:47.579Z,5.37
2017-12-30T06:45:15.248Z,5.21
2017-12-30T06:47:42.964Z,5.29
2017-12-30T06:50:10.628Z,5.32
2017-12-30T06:52:38.230Z,5.35
2017-12-30T06:55:05.850Z,5.39
2017-12-30T06:57:33.523Z,5.42
2017-12-30T07:00:01.200Z,5.51
2017-12-30T07:02:28.864Z,5.58
2017-12-30T07:04:56.471Z,5.51
2017-12-30T07:07:24.078Z,5.48
2017-12-30T07:09:51.691Z,5.58
2017-12-30T07:12:19.366Z,5.60
2017-12-30T07:14:47.040Z,5.61
2017-12-30T07:17:14.652Z,5.76
2017-12-30T07:19:42.319Z,5.89
2017-12-30T07:22:09.934Z,5.89
2017-12-30T07:24:37.599Z,5.79
2017-12-30T07:27:05.258Z,5.84
2017-12-30T07:29:32.868Z,5.88
2017-12-30T07:32:00.476Z,5.92
2017-12-30T07:34:28.089Z,5.92
2017-12-30T07:36:55.757Z,6.05
2017-12-30T07:39:23.423Z,6.10
2017-12-30T07:41:51.031Z,6.05
2017-12-30T07:44:18.699Z,6.12
2017-12-30T07:46:46.303Z,6.06
2017-12-30T07:49:13.963Z,5.94
2017-12-30T07:51:41.567Z,6.12
2017-12-30T07:54:09.228Z,6.22
2017-12-30T07:56:36.907Z,6.17
2017-12-30T07:59:04.575Z,6.15
2017-12-30T08:01:32.234Z,6.26
2017-12-30T08:03:59.903Z,6.42
2017-12-30T08:06:27.506Z,6.51
2017-12-30T08:08:55.170Z,6.42
2017-12-30T08:11:22.836Z,6.34
2017-12-30T08:13:50.559Z,6.24
2017-12-30T08:16:18.158Z,6.29
2017-12-30T08:18:45.762Z,6.41
2017-12-30T08:21:13.434Z,6.68
2017-12-30T08:23:41.030Z,6.80
2017-12-30T08:26:08.747Z,6.73
2017-12-30T08:28:36.439Z,6.82
2017-12-30T08:31:04.121Z,6.92
2017-12-30T08:33:31.738Z,6.72
2017-12-30T08:35:59.351Z,6.85
2017-12-30T08:38:27.011Z,7.03
2017-12-30T08:40:54.615Z,7.03
2017-12-30T08:43:22.228Z,7.32
2017-12-30T08:45:49.831Z,6.82
2017-12-30T08:48:17.425Z,6.99
2017-12-30T08:50:45.094Z,7.19
2017-12-30T08:53:12.695Z,7.19
2017-12-30T08:55:40.302Z,7.15
2017-12-30T08:58:07.910Z,7.22
2017-12-30T09:00:35.574Z,7.19
2017-12-30T09:03:03.291Z,6.91
2017-12-30T09:05:30.960Z,7.07
2017-12-30T09:07:58.555Z,7.23
2017-12-30T09:10:26.166Z,7.45
2017-12-30T09:12:53.837Z,7.32
2017-12-30T09:15:21.555Z,7.52
2017-12-30T09:17:49.225Z,7.52
2017-12-30T09:20:16.827Z,7.36
2017-12-30T09:22:44.430Z,7.72
2017-12-30T09:25:12.026Z,7.97
2017-12-30T09:27:39.698Z,7.92
2017-12-30T09:30:07.371Z,7.90
2017-12-30T09:32:35.035Z,7.82
2017-12-30T09:35:02.643Z,7.79
2017-12-30T09:37:30.296Z,7.87
2017-12-30T09:39:57.959Z,7.96
2017-12-30T09:42:25.635Z,8.16
2017-12-30T09:44:53.295Z,7.88
2017-12-30T09:47:20.902Z,7.91
2017-12-30T09:49:48.571Z,7.79
2017-12-30T09:52:16.233Z,7.71
2017-12-30T09:54:43.839Z,7.66
2017-12-30T09:57:11.504Z,7.55
2017-12-30T09:59:39.154Z,7.65
2017-12-30T10:02:06.746Z,7.94
2017-12-30T10:04:34.410Z,7.87
2017-12-30T10:07:02.019Z,8.06
2017-12-30T10:09:29.622Z,8.04
2017-12-30T10:11:57.299Z,8.14
2017-12-30T10:14:24.906Z,8.12
2017-12-30T10:16:52.623Z,7.85
2017-12-30T10:19:20.273Z,7.97
2017-12-30T10:21:47.934Z,8.11
2017-12-30T10:24:15.547Z,7.76
2017-12-30T10:26:43.150Z,7.71
2017-12-30T10:29:10.873Z,7.25
2017-12-30T10:31:38.477Z,7.35
2017-12-30T10:34:06.073Z,7.23
2017-12-30T10:36:33.750Z,7.25
2017-12-30T10:39:01.356Z,7.40
2017-12-30T10:41:29.074Z,7.26
2017-12-30T10:43:56.678Z,6.99
2017-12-30T10:46:24.292Z,7.31
2017-12-30T10:48:51.913Z,7.19
2017-12-30T10:51:19.515Z,7.16
2017-12-30T10:53:47.172Z,7.22
2017-12-30T10:56:14.835Z,7.32
2017-12-30T10:58:42.430Z,7.37
2017-12-30T11:01:10.097Z,7.36
2017-12-30T11:03:37.702Z,7.20
2017-12-30T11:06:05.355Z,7.01
2017-12-30T11:08:32.961Z,6.90
2017-12-30T11:11:00.590Z,7.03
2017-12-30T11:13:28.197Z,7.10
2017-12-30T11:15:55.799Z,6.84
2017-12-30T11:18:23.535Z,7.10
2017-12-30T11:20:51.154Z,7.32
2017-12-30T11:23:18.754Z,7.43
2017-12-30T11:25:46.379Z,7.51
2017-12-30T11:28:13.986Z,7.46
2017-12-30T11:30:41.698Z,7.66
2017-12-30T11:33:09.370Z,7.89
2017-12-30T11:35:37.136Z,7.85
2017-12-30T11:38:04.743Z,7.86
2017-12-30T11:40:32.353Z,8.02
2017-12-30T11:43:00.007Z,8.01
2017-12-30T11:45:27.624Z,7.98
2017-12-30T11:47:55.225Z,8.06
2017-12-30T11:50:22.830Z,8.06
2017-12-30T11:52:50.496Z,8.04
2017-12-30T11:55:18.154Z,7.93
2017-12-30T11:57:45.815Z,7.83
2017-12-30T12:00:13.474Z,7.98
2017-12-30T12:02:41.087Z,7.94
2017-12-30T12:05:08.694Z,7.79
2017-12-30T12:07:36.361Z,7.80
2017-12-30T12:10:04.053Z,7.81
2017-12-30T12:12:31.663Z,7.88
2017-12-30T12:14:59.362Z,7.90
2017-12-30T12:17:26.967Z,7.96
2017-12-30T12:19:54.659Z,7.96
2017-12-30T12:22:22.334Z,7.87
2017-12-30T12:24:50.008Z,8.07
2017-12-30T12:27:17.620Z,7.98
2017-12-30T12:29:45.229Z,8.09
2017-12-30T12:32:12.956Z,7.99
2017-12-30T12:34:40.566Z,8.10
2017-12-30T12:37:08.226Z,8.20
2017-12-30T12:39:35.838Z,8.17
2017-12-30T12:42:03.503Z,8.21
2017-12-30T12:44:31.229Z,8.26
2017-12-30T12:46:58.895Z,8.21
2017-12-30T12:49:26.503Z,8.27
2017-12-30T12:51:54.120Z,8.32
2017-12-30T12:54:21.750Z,8.13
2017-12-30T12:56:49.469Z,8.08
2017-12-30T12:59:17.079Z,8.21
2017-12-30T13:01:44.743Z,8.27
2017-12-30T13:04:12.366Z,8.15
2017-12-30T13:06:40.037Z,7.90
2017-12-30T13:09:07.759Z,8.08
2017-12-30T13:11:35.415Z,8.04
2017-12-30T13:14:03.079Z,7.91
2017-12-30T13:16:30.754Z,7.93
2017-12-30T13:18:58.358Z,7.80
2017-12-30T13:24:07.978Z,7.61
2017-12-30T13:26:35.647Z,7.64
2017-12-30T13:29:03.251Z,7.69
2017-12-30T13:31:30.858Z,7.71
2017-12-30T13:33:58.479Z,7.75
2017-12-30T13:36:26.148Z,7.65
2017-12-30T13:38:53.821Z,7.61
2017-12-30T13:41:21.482Z,7.66
2017-12-30T13:43:49.074Z,7.63
2017-12-30T13:46:16.767Z,7.51
2017-12-30T13:48:44.433Z,7.49
2017-12-30T13:51:12.106Z,7.37
2017-12-30T13:53:39.783Z,7.33
2017-12-30T13:56:07.393Z,7.32
2017-12-30T13:58:35.010Z,7.22
2017-12-30T14:01:02.618Z,7.26
2017-12-30T14:03:30.300Z,7.29
2017-12-30T14:05:57.908Z,7.28
2017-12-30T14:08:25.514Z,7.23
2017-12-30T14:10:53.122Z,7.19
2017-12-30T14:13:20.727Z,7.12
2017-12-30T14:15:48.390Z,7.10
2017-12-30T14:18:15.998Z,7.01
2017-12-30T14:20:43.615Z,7.05
2017-12-30T14:23:11.238Z,7.06
2017-12-30T14:25:38.907Z,6.90
2017-12-30T14:28:06.580Z,6.76
2017-12-30T14:30:34.186Z,6.66
2017-12-30T14:33:01.859Z,6.54
2017-12-30T14:35:29.468Z,6.51
2017-12-30T14:37:57.075Z,6.44
2017-12-30T14:40:24.737Z,6.40
2017-12-30T14:42:52.351Z,6.29
2017-12-30T14:45:19.950Z,6.24
2017-12-30T14:47:47.614Z,6.17
2017-12-30T14:50:15.238Z,6.16
2017-12-30T14:52:42.924Z,6.13
2017-12-30T14:55:10.531Z,6.08
2017-12-30T14:57:38.134Z,6.08
2017-12-30T15:00:05.811Z,6.01
2017-12-30T15:02:33.414Z,5.98
2017-12-30T15:05:01.077Z,5.96
2017-12-30T15:07:28.737Z,5.91
2017-12-30T15:09:56.404Z,5.84
2017-12-30T15:12:24.075Z,5.77
2017-12-30T15:14:51.679Z,5.77
2017-12-30T15:17:19.397Z,5.78
2017-12-30T15:19:46.995Z,5.79
2017-12-30T15:22:14.659Z,5.80
2017-12-30T15:24:42.339Z,5.83
2017-12-30T15:27:09.950Z,5.84
2017-12-30T15:29:37.622Z,5.84
2017-12-30T15:32:22.583Z,5.81
2017-12-30T15:34:50.267Z,5.76
2017-12-30T15:37:17.935Z,5.70
2017-12-30T15:39:45.545Z,5.64
2017-12-30T15:42:13.219Z,5.57
2017-12-30T15:44:40.822Z,5.53
2017-12-30T15:47:08.537Z,5.43
2017-12-30T15:49:36.130Z,5.38
2017-12-30T15:52:03.811Z,5.33
2017-12-30T15:54:31.436Z,5.25
2017-12-30T15:56:59.043Z,5.15
2017-12-30T15:59:26.754Z,5.13
2017-12-30T16:01:54.374Z,5.04
2017-12-30T16:04:21.983Z,4.97
2017-12-30T16:06:49.607Z,4.88
2017-12-30T16:09:17.289Z,4.84
2017-12-30T16:11:45.012Z,4.77
2017-12-30T16:14:12.624Z,4.76
2017-12-30T16:16:40.226Z,4.72
2017-12-30T16:19:07.853Z,4.70
2017-12-30T16:21:35.479Z,4.67
2017-12-30T16:24:03.130Z,4.67
2017-12-30T16:26:30.744Z,4.66
2017-12-30T16:28:58.346Z,4.62
2017-12-30T16:31:25.973Z,4.62
2017-12-30T16:33:53.646Z,4.57
2017-12-30T16:36:21.334Z,4.54
2017-12-30T16:38:49.005Z,4.52
2017-12-30T16:41:16.663Z,4.43
2017-12-30T16:43:44.283Z,4.33
2017-12-30T16:46:11.897Z,4.32
2017-12-30T16:48:39.633Z,4.34
2017-12-30T16:51:07.260Z,4.34
2017-12-30T16:53:34.885Z,4.33
2017-12-30T16:56:02.562Z,4.33
2017-12-30T16:58:30.222Z,4.28
2017-12-30T17:00:57.888Z,4.29
2017-12-30T17:03:25.495Z,4.28
2017-12-30T17:05:53.124Z,4.25
2017-12-30T17:08:21.478Z,4.20
2017-12-30T17:10:49.089Z,4.15
2017-12-30T17:13:16.757Z,4.06
2017-12-30T17:15:44.385Z,4.01
2017-12-30T17:18:12.006Z,3.98
2017-12-30T17:20:39.626Z,3.95
2017-12-30T17:23:08.404Z,3.88
2017-12-30T17:25:36.088Z,3.88
2017-12-30T17:28:03.761Z,3.89
2017-12-30T17:30:31.440Z,3.86
2017-12-30T17:32:59.125Z,3.84
2017-12-30T17:35:26.742Z,3.80
2017-12-30T17:37:54.471Z,3.76
2017-12-30T17:40:22.106Z,3.71
2017-12-30T17:42:49.775Z,3.66
2017-12-30T17:45:17.399Z,3.63
2017-12-30T17:47:45.032Z,3.61
2017-12-30T17:50:12.702Z,3.62
2017-12-30T17:52:40.335Z,3.59
2017-12-30T17:55:08.019Z,3.54
2017-12-30T17:57:35.649Z,3.61
2017-12-30T18:00:03.335Z,3.64
2017-12-30T18:02:30.998Z,3.67
2017-12-30T18:04:58.677Z,3.73
2017-12-30T18:07:26.320Z,3.74
2017-12-30T18:12:27.066Z,3.78
2017-12-30T18:14:54.679Z,3.80
2017-12-30T18:17:22.367Z,3.91
2017-12-30T18:19:49.979Z,3.96
2017-12-30T18:22:17.590Z,4.08
2017-12-30T18:24:45.214Z,4.16
2017-12-30T18:27:12.833Z,4.23
2017-12-30T18:29:40.500Z,4.33
2017-12-30T18:32:08.111Z,4.41
2017-12-30T18:34:35.794Z,4.53
2017-12-30T18:37:03.439Z,4.63
2017-12-30T18:39:31.042Z,4.73
2017-12-30T18:41:59.858Z,4.79
2017-12-30T18:44:27.531Z,4.82
2017-12-30T18:46:55.276Z,4.91
2017-12-30T18:49:22.891Z,4.98
2017-12-30T18:51:50.505Z,5.02
2017-12-30T18:54:18.275Z,5.03
2017-12-30T18:56:45.895Z,5.05
2017-12-30T18:59:13.506Z,5.12
2017-12-30T19:01:41.126Z,5.15
2017-12-30T19:04:08.787Z,5.17
2017-12-30T19:06:36.458Z,5.07
2017-12-30T19:09:04.231Z,5.15
2017-12-30T19:11:31.902Z,5.20
2017-12-30T19:13:59.523Z,5.27
2017-12-30T19:16:27.156Z,5.31
2017-12-30T19:18:54.826Z,5.34
2017-12-30T19:21:22.430Z,5.36
2017-12-30T19:23:50.029Z,5.41
2017-12-30T19:26:17.668Z,5.43
2017-12-30T19:28:45.283Z,5.40
2017-12-30T19:31:12.938Z,5.38
2017-12-30T19:33:40.533Z,5.37
2017-12-30T19:36:08.142Z,5.36
2017-12-30T19:38:35.825Z,5.24
2017-12-30T19:41:03.423Z,5.17
2017-12-30T19:43:31.078Z,5.08
2017-12-30T19:45:58.746Z,4.91
2017-12-30T19:48:26.417Z,4.80
2017-12-30T19:50:54.035Z,4.68
2017-12-30T19:53:21.634Z,4.56
2017-12-30T19:55:49.359Z,4.45
2017-12-30T19:58:17.946Z,4.38
2017-12-30T20:00:45.610Z,4.32
2017-12-30T20:03:13.292Z,4.30
2017-12-30T20:05:41.856Z,4.19
2017-12-30T20:08:09.570Z,4.17
2017-12-30T20:10:37.236Z,4.22
2017-12-30T20:13:05.570Z,4.16
2017-12-30T20:15:33.251Z,4.10
2017-12-30T20:18:00.854Z,4.07
2017-12-30T20:20:28.518Z,4.11
2017-12-30T20:22:56.127Z,4.08
2017-12-30T20:25:23.798Z,4.06
2017-12-30T20:27:51.422Z,4.00
2017-12-30T20:30:19.026Z,3.91
2017-12-30T20:32:46.690Z,3.82
2017-12-30T20:35:14.308Z,3.78
2017-12-30T20:37:41.922Z,3.72
2017-12-30T20:40:09.546Z,3.67
2017-12-30T20:42:37.145Z,3.69
2017-12-30T20:45:04.805Z,3.70
2017-12-30T20:47:32.425Z,3.67
2017-12-30T20:50:00.026Z,3.58
2017-12-30T20:52:27.718Z,3.54
2017-12-30T20:54:55.399Z,3.46
2017-12-30T20:57:23.130Z,3.42
2017-12-30T20:59:50.766Z,3.40
2017-12-30T21:02:18.383Z,3.33
2017-12-30T21:04:46.076Z,3.27
2017-12-30T21:07:13.701Z,3.25
2017-12-30T21:09:41.367Z,3.32
2017-12-30T21:12:09.044Z,3.36
2017-12-30T21:14:36.716Z,3.38
2017-12-30T21:17:04.347Z,3.44
2017-12-30T21:19:31.985Z,3.54
2017-12-30T21:21:59.733Z,3.63
2017-12-30T21:24:27.356Z,3.81
2017-12-30T21:26:54.974Z,3.98
2017-12-30T21:29:22.595Z,4.16
2017-12-30T21:31:50.222Z,4.45
2017-12-30T21:34:17.938Z,4.52
2017-12-30T21:36:45.550Z,4.59
2017-12-30T21:39:13.219Z,4.65
2017-12-30T21:41:40.904Z,4.76
2017-12-30T21:44:08.579Z,4.83
2017-12-30T21:46:36.346Z,4.93
2017-12-30T21:49:03.951Z,4.97
2017-12-30T21:51:31.619Z,5.05
2017-12-30T21:54:00.164Z,5.10
2017-12-30T21:56:27.780Z,5.14
2017-12-30T21:58:55.442Z,5.19
2017-12-30T22:01:23.047Z,5.19
2017-12-30T22:03:50.647Z,5.21
2017-12-30T22:06:18.325Z,5.27
2017-12-30T22:08:45.939Z,5.21
2017-12-30T22:11:13.604Z,5.12
2017-12-30T22:13:41.222Z,5.12
2017-12-30T22:16:08.903Z,5.02
2017-12-30T22:18:36.518Z,4.90
2017-12-30T22:21:04.127Z,4.84
2017-12-30T22:23:31.792Z,4.64
2017-12-30T22:25:59.463Z,4.49
2017-12-30T22:28:27.130Z,4.55
2017-12-30T22:30:54.810Z,4.55
2017-12-30T22:33:22.478Z,4.71
2017-12-30T22:35:50.142Z,4.83
2017-12-30T22:38:17.805Z,4.91
2017-12-30T22:40:45.414Z,5.00
2017-12-30T22:43:13.029Z,5.06
2017-12-30T22:45:40.635Z,5.09
2017-12-30T22:48:08.372Z,5.12
2017-12-30T22:50:35.985Z,5.14
2017-12-30T22:53:03.586Z,5.06
2017-12-30T22:55:31.195Z,5.03
2017-12-30T22:57:58.858Z,5.01
2017-12-30T23:00:39.449Z,4.98
2017-12-30T23:03:07.054Z,4.95
2017-12-30T23:05:34.661Z,4.91
2017-12-30T23:08:02.275Z,4.81
2017-12-30T23:10:29.878Z,4.79
2017-12-30T23:12:57.551Z,4.67
2017-12-30T23:15:25.183Z,4.60
2017-12-30T23:17:52.790Z,4.49
2017-12-30T23:20:20.407Z,4.38
2017-12-30T23:22:48.014Z,4.27
2017-12-30T23:25:15.675Z,4.14
2017-12-30T23:27:43.279Z,4.04
2017-12-30T23:30:10.878Z,3.87
2017-12-30T23:32:38.481Z,3.75
2017-12-30T23:35:06.110Z,3.62
2017-12-30T23:37:33.775Z,3.60
2017-12-30T23:40:01.378Z,3.50
2017-12-30T23:42:28.983Z,3.38
2017-12-30T23:44:56.658Z,3.31
2017-12-30T23:47:24.319Z,3.26
2017-12-30T23:49:51.979Z,3.19
2017-12-30T23:52:19.644Z,3.11
2017-12-30T23:54:47.307Z,3.02
2017-12-30T23:57:14.974Z,3.04
2017-12-30T23:59:42.630Z,3.01
